GEC106 EGNX-EDDK
Flight info
| Callsign | GEC106 |
|---|---|
| Flight time | N/A |
| Altitude | 31000 |
| Route | SAPCO Y53 DTY DCT SILVA UM605 BENSU Q70 BIG UL9 KONAN UL607 SPI/N0449F230 T857 DENOV T861 ERUKI ERUKI1G |
| Aircraft | B77L/H-SDE1E2E3FGHIJ2J3J4J5M1RWXY/LB1D1 |
Departure
| Time | 2026-04-30 12:06 |
|---|---|
| Airport | East Midlands Airport (EGNX) |
Arrival
| Time | N/A |
|---|---|
| Airport | Cologne Bonn Airport (EDDK) |
| Time | Latitude | Longitude | Altitude | Speed | Heading |
|---|---|---|---|---|---|
| 2026-04-30 11:46 | 52.82752 | -1.35037 | 305 ft | 0 kts | 178° |
| 2026-04-30 11:57 | 52.82768 | -1.35037 | 305 ft | 4 kts | 178° |
| 2026-04-30 11:58 | 52.82790 | -1.35038 | 303 ft | 4 kts | 181° |
| 2026-04-30 11:58 | 52.82814 | -1.35031 | 303 ft | 4 kts | 219° |
| 2026-04-30 11:58 | 52.82824 | -1.35000 | 303 ft | 4 kts | 268° |
| 2026-04-30 11:58 | 52.82825 | -1.34956 | 304 ft | 4 kts | 268° |
| 2026-04-30 11:59 | 52.82825 | -1.34941 | 304 ft | 2 kts | 268° |
| 2026-04-30 12:02 | 52.82825 | -1.34942 | 305 ft | 1 kts | 268° |
| 2026-04-30 12:02 | 52.82823 | -1.35021 | 307 ft | 10 kts | 268° |
| 2026-04-30 12:02 | 52.82820 | -1.35140 | 308 ft | 10 kts | 267° |
| 2026-04-30 12:03 | 52.82839 | -1.35248 | 309 ft | 10 kts | 329° |
| 2026-04-30 12:03 | 52.82897 | -1.34999 | 308 ft | 15 kts | 85° |
| 2026-04-30 12:03 | 52.82937 | -1.34941 | 310 ft | 0 kts | 7° |
| 2026-04-30 12:04 | 52.82953 | -1.34937 | 310 ft | 10 kts | 7° |
| 2026-04-30 12:04 | 52.83039 | -1.34931 | 310 ft | 11 kts | 19° |
| 2026-04-30 12:04 | 52.83061 | -1.34861 | 311 ft | 2 kts | 81° |
| 2026-04-30 12:05 | 52.83064 | -1.34826 | 309 ft | 5 kts | 86° |
| 2026-04-30 12:05 | 52.83071 | -1.34600 | 307 ft | 41 kts | 88° |
| 2026-04-30 12:05 | 52.83086 | -1.33626 | 313 ft | 127 kts | 88° |
| 2026-04-30 12:05 | 52.83125 | -1.31783 | 468 ft | 182 kts | 89° |
| 2026-04-30 12:06 | 52.83177 | -1.29563 | 1074 ft | 199 kts | 90° |
| 2026-04-30 12:06 | 52.83155 | -1.27310 | 1794 ft | 196 kts | 98° |
| 2026-04-30 12:06 | 52.82834 | -1.25032 | 2140 ft | 211 kts | 112° |
| 2026-04-30 12:06 | 52.82161 | -1.22874 | 2768 ft | 214 kts | 122° |
| 2026-04-30 12:07 | 52.81276 | -1.20846 | 3342 ft | 218 kts | 130° |
| 2026-04-30 12:07 | 52.80456 | -1.18836 | 4314 ft | 209 kts | 121° |
| 2026-04-30 12:07 | 52.79617 | -1.16856 | 5088 ft | 216 kts | 135° |
| 2026-04-30 12:07 | 52.78536 | -1.15085 | 5791 ft | 220 kts | 143° |
| 2026-04-30 12:08 | 52.77112 | -1.14221 | 6486 ft | 227 kts | 180° |
| 2026-04-30 12:08 | 52.75583 | -1.15048 | 7199 ft | 239 kts | 205° |
| 2026-04-30 12:08 | 52.74179 | -1.16612 | 7917 ft | 248 kts | 212° |
| 2026-04-30 12:08 | 52.72805 | -1.18384 | 8579 ft | 252 kts | 213° |
| 2026-04-30 12:09 | 52.71428 | -1.20196 | 9403 ft | 256 kts | 213° |
| 2026-04-30 12:09 | 52.70009 | -1.22060 | 10065 ft | 265 kts | 212° |
| 2026-04-30 12:09 | 52.68517 | -1.23892 | 10654 ft | 267 kts | 201° |
| 2026-04-30 12:09 | 52.66747 | -1.24495 | 11250 ft | 260 kts | 168° |
| 2026-04-30 12:10 | 52.64976 | -1.23869 | 11844 ft | 265 kts | 165° |
| 2026-04-30 12:10 | 52.63106 | -1.23233 | 12258 ft | 284 kts | 166° |
| 2026-04-30 12:10 | 52.61102 | -1.22593 | 12700 ft | 302 kts | 167° |
| 2026-04-30 12:10 | 52.58942 | -1.21918 | 13156 ft | 321 kts | 167° |
| 2026-04-30 12:11 | 52.56712 | -1.21227 | 13587 ft | 339 kts | 167° |
| 2026-04-30 12:11 | 52.54350 | -1.20501 | 14182 ft | 351 kts | 167° |
| 2026-04-30 12:11 | 52.51915 | -1.19760 | 14805 ft | 361 kts | 167° |
| 2026-04-30 12:11 | 52.49417 | -1.19005 | 15509 ft | 368 kts | 168° |
| 2026-04-30 12:12 | 52.46882 | -1.18240 | 16283 ft | 373 kts | 168° |
| 2026-04-30 12:12 | 52.44320 | -1.17432 | 17045 ft | 377 kts | 165° |
| 2026-04-30 12:12 | 52.41823 | -1.16082 | 17902 ft | 379 kts | 156° |
| 2026-04-30 12:12 | 52.39462 | -1.14135 | 18692 ft | 382 kts | 150° |
| 2026-04-30 12:13 | 52.37230 | -1.11729 | 19386 ft | 385 kts | 145° |
| 2026-04-30 12:13 | 52.35032 | -1.09211 | 20114 ft | 387 kts | 145° |
| 2026-04-30 12:13 | 52.32822 | -1.06676 | 20860 ft | 389 kts | 145° |
| 2026-04-30 12:13 | 52.30602 | -1.04136 | 21618 ft | 390 kts | 145° |
| 2026-04-30 12:14 | 52.28374 | -1.01593 | 22387 ft | 391 kts | 145° |
| 2026-04-30 12:14 | 52.26110 | -0.99021 | 23204 ft | 391 kts | 145° |
| 2026-04-30 12:14 | 52.23901 | -0.96519 | 23955 ft | 392 kts | 144° |
| 2026-04-30 12:14 | 52.21631 | -0.93954 | 24647 ft | 391 kts | 144° |
| 2026-04-30 12:15 | 52.19424 | -0.91466 | 25318 ft | 390 kts | 145° |
| 2026-04-30 12:15 | 52.17196 | -0.88956 | 26049 ft | 389 kts | 145° |
| 2026-04-30 12:15 | 52.14971 | -0.86455 | 26796 ft | 387 kts | 145° |
| 2026-04-30 12:15 | 52.12748 | -0.83959 | 27392 ft | 390 kts | 145° |
| 2026-04-30 12:16 | 52.10502 | -0.81441 | 27864 ft | 395 kts | 145° |
| 2026-04-30 12:16 | 52.08221 | -0.78885 | 28358 ft | 400 kts | 145° |
| 2026-04-30 12:16 | 52.05918 | -0.76309 | 28845 ft | 404 kts | 145° |
| 2026-04-30 12:16 | 52.03594 | -0.73713 | 29369 ft | 407 kts | 145° |
| 2026-04-30 12:17 | 51.98885 | -0.68463 | 30375 ft | 413 kts | 145° |
| 2026-04-30 12:17 | 51.96510 | -0.65820 | 30812 ft | 415 kts | 145° |
| 2026-04-30 12:17 | 51.94120 | -0.63165 | 31228 ft | 418 kts | 145° |
| 2026-04-30 12:18 | 51.89219 | -0.57726 | 31245 ft | 435 kts | 145° |
| 2026-04-30 12:18 | 51.84141 | -0.52109 | 31252 ft | 447 kts | 145° |
| 2026-04-30 12:19 | 51.78950 | -0.46386 | 31255 ft | 457 kts | 145° |
| 2026-04-30 12:19 | 51.73641 | -0.40546 | 31327 ft | 465 kts | 145° |
| 2026-04-30 12:20 | 51.68301 | -0.34690 | 31316 ft | 464 kts | 145° |
| 2026-04-30 12:20 | 51.62968 | -0.28859 | 31320 ft | 463 kts | 145° |
| 2026-04-30 12:21 | 51.57638 | -0.23045 | 31236 ft | 463 kts | 145° |
| 2026-04-30 12:21 | 51.52313 | -0.17255 | 31236 ft | 462 kts | 145° |
| 2026-04-30 12:22 | 51.47884 | -0.12453 | 31235 ft | 462 kts | 145° |
| 2026-04-30 12:22 | 51.42554 | -0.06687 | 31235 ft | 462 kts | 145° |
| 2026-04-30 12:23 | 51.37248 | -0.00894 | 31211 ft | 459 kts | 141° |
| 2026-04-30 12:23 | 51.34995 | 0.02714 | 31235 ft | 460 kts | 128° |
| 2026-04-30 12:23 | 51.33258 | 0.07025 | 31262 ft | 464 kts | 119° |
| 2026-04-30 12:24 | 51.31298 | 0.16904 | 31277 ft | 473 kts | 102° |
| 2026-04-30 12:24 | 51.30164 | 0.27270 | 31289 ft | 473 kts | 103° |
| 2026-04-30 12:25 | 51.28883 | 0.37595 | 31290 ft | 474 kts | 103° |
| 2026-04-30 12:25 | 51.27628 | 0.47932 | 31278 ft | 474 kts | 103° |
| 2026-04-30 12:26 | 51.26369 | 0.58259 | 31284 ft | 473 kts | 103° |
| 2026-04-30 12:26 | 51.25022 | 0.68536 | 31277 ft | 473 kts | 104° |
| 2026-04-30 12:27 | 51.23685 | 0.78813 | 31268 ft | 473 kts | 103° |
| 2026-04-30 12:27 | 51.22401 | 0.89097 | 31257 ft | 472 kts | 103° |
| 2026-04-30 12:28 | 51.21100 | 0.99361 | 31231 ft | 472 kts | 103° |